Wetterdaten: Woche 12.12.11 - 18.12.11 (KW50)
Datum Zeit Temperatur Luftfeuchte Luftdruck Niederschlag Windrichtung Sonnenschein Solar Wind
12.12.2011 00:00 3,3 C 98 % 1013,8 hPa 0,0 l/m SW 0,00 h 0 W/m 10,1 km/h (2 Bft)
12.12.2011 01:00 2,9 C 99 % 1012,9 hPa 0,0 l/m SW 0,00 h 0 W/m 7,5 km/h (2 Bft)
12.12.2011 02:00 2,7 C 99 % 1012,4 hPa 0,0 l/m SW 0,00 h 0 W/m 4,5 km/h (1 Bft)
12.12.2011 03:00 2,7 C 99 % 1011,5 hPa 0,0 l/m SW 0,00 h 0 W/m 6,1 km/h (2 Bft)
12.12.2011 04:00 2,6 C 99 % 1010,8 hPa 0,0 l/m SW 0,00 h 0 W/m 5,9 km/h (2 Bft)
12.12.2011 05:00 2,4 C 99 % 1010,0 hPa 0,0 l/m SW 0,00 h 0 W/m 7,8 km/h (2 Bft)
12.12.2011 06:00 2,4 C 99 % 1009,9 hPa 0,0 l/m SW 0,00 h 0 W/m 9,8 km/h (2 Bft)
12.12.2011 07:00 2,3 C 99 % 1009,3 hPa 0,0 l/m S-SW 0,00 h 0 W/m 9,8 km/h (2 Bft)
12.12.2011 08:00 2,2 C 99 % 1008,9 hPa 0,0 l/m S 0,00 h 11 W/m 8,3 km/h (2 Bft)
12.12.2011 09:00 2,3 C 99 % 1008,9 hPa 0,2 l/m S-SW 0,00 h 23 W/m 7,6 km/h (2 Bft)
12.12.2011 10:00 3,2 C 100 % 1009,7 hPa 0,0 l/m S-SW 0,00 h 40 W/m 11,7 km/h (2 Bft)
12.12.2011 11:00 5,1 C 100 % 1010,1 hPa 0,2 l/m W-SW 0,00 h 71 W/m 31,7 km/h (5 Bft)
12.12.2011 12:00 6,0 C 97 % 1010,0 hPa 0,0 l/m W-SW 0,00 h 61 W/m 29,0 km/h (5 Bft)
12.12.2011 13:00 6,2 C 94 % 1010,1 hPa 0,0 l/m W-SW 0,00 h 50 W/m 25,5 km/h (4 Bft)
12.12.2011 14:00 5,9 C 93 % 1010,8 hPa 0,2 l/m W-SW 0,00 h 25 W/m 22,8 km/h (4 Bft)
12.12.2011 15:00 5,4 C 93 % 1011,9 hPa 0,4 l/m W-SW 0,00 h 17 W/m 20,1 km/h (4 Bft)
12.12.2011 16:00 4,9 C 94 % 1013,6 hPa 1,2 l/m W 0,00 h 6 W/m 14,5 km/h (3 Bft)
12.12.2011 17:00 4,4 C 95 % 1014,9 hPa 0,0 l/m W-SW 0,00 h 0 W/m 12,1 km/h (2 Bft)
12.12.2011 18:00 3,6 C 94 % 1015,8 hPa 0,0 l/m W-SW 0,00 h 0 W/m 11,7 km/h (2 Bft)
12.12.2011 19:00 2,7 C 94 % 1017,4 hPa 0,0 l/m W-SW 0,00 h 0 W/m 7,9 km/h (2 Bft)
12.12.2011 20:00 2,5 C 95 % 1018,3 hPa 0,0 l/m W-SW 0,00 h 0 W/m 10,3 km/h (2 Bft)
12.12.2011 21:00 2,7 C 95 % 1018,5 hPa 0,0 l/m W-SW 0,00 h 0 W/m 12,1 km/h (2 Bft)
12.12.2011 22:00 2,5 C 95 % 1018,3 hPa 0,0 l/m SW 0,00 h 0 W/m 8,3 km/h (2 Bft)
12.12.2011 23:00 1,4 C 94 % 1017,7 hPa 0,0 l/m SW 0,00 h 0 W/m 5,6 km/h (1 Bft)
13.12.2011 00:00 0,5 C 95 % 1017,2 hPa 0,0 l/m SW 0,00 h 0 W/m 2,5 km/h (1 Bft)
13.12.2011 01:00 0,3 C 96 % 1016,6 hPa 0,0 l/m SW 0,00 h 0 W/m 10,2 km/h (2 Bft)
13.12.2011 02:00 0,6 C 96 % 1015,9 hPa 0,0 l/m SW 0,00 h 0 W/m 9,4 km/h (2 Bft)
13.12.2011 03:00 -0,0 C 96 % 1015,0 hPa 0,0 l/m S-SW 0,00 h 0 W/m 2,1 km/h (1 Bft)
13.12.2011 04:00 -0,3 C 96 % 1014,1 hPa 0,0 l/m SW 0,00 h 0 W/m 8,7 km/h (2 Bft)
13.12.2011 05:00 -0,5 C 96 % 1013,3 hPa 0,0 l/m N 0,00 h 0 W/m 1,9 km/h (1 Bft)
13.12.2011 06:00 -0,9 C 96 % 1012,8 hPa 0,0 l/m N 0,00 h 0 W/m 2,3 km/h (1 Bft)
13.12.2011 07:00 -0,7 C 96 % 1012,3 hPa 0,0 l/m N 0,00 h 0 W/m 3,9 km/h (1 Bft)
13.12.2011 08:00 -0,3 C 97 % 1011,8 hPa 0,0 l/m SW 0,00 h 8 W/m 9,7 km/h (2 Bft)
13.12.2011 09:00 0,3 C 97 % 1011,1 hPa 0,0 l/m SW 0,00 h 30 W/m 14,5 km/h (3 Bft)
13.12.2011 10:00 1,1 C 94 % 1010,4 hPa 0,2 l/m SW 0,33 h 135 W/m 15,2 km/h (3 Bft)
13.12.2011 11:00 2,3 C 89 % 1009,5 hPa 0,0 l/m SW 0,00 h 80 W/m 15,4 km/h (3 Bft)
13.12.2011 12:00 3,0 C 81 % 1009,4 hPa 0,0 l/m SW 0,00 h 55 W/m 15,8 km/h (3 Bft)
13.12.2011 13:00 4,2 C 76 % 1009,3 hPa 0,0 l/m SW 0,00 h 56 W/m 15,7 km/h (3 Bft)
13.12.2011 14:00 4,4 C 78 % 1008,9 hPa 0,0 l/m S-SW 0,08 h 89 W/m 24,8 km/h (4 Bft)
13.12.2011 15:00 4,2 C 81 % 1008,7 hPa 0,0 l/m SW 0,00 h 23 W/m 22,4 km/h (4 Bft)
13.12.2011 16:00 5,1 C 83 % 1008,9 hPa 0,0 l/m W-SW 0,00 h 5 W/m 21,0 km/h (4 Bft)
13.12.2011 17:00 6,3 C 87 % 1009,1 hPa 0,0 l/m SW 0,00 h 0 W/m 28,0 km/h (4 Bft)
13.12.2011 18:00 6,6 C 89 % 1009,4 hPa 0,2 l/m SW 0,00 h 0 W/m 28,8 km/h (5 Bft)
13.12.2011 19:00 5,7 C 91 % 1009,7 hPa 0,0 l/m SW 0,00 h 0 W/m 19,6 km/h (3 Bft)
13.12.2011 20:00 4,9 C 93 % 1009,5 hPa 0,0 l/m SW 0,00 h 0 W/m 17,4 km/h (3 Bft)
13.12.2011 21:00 5,4 C 92 % 1009,7 hPa 0,0 l/m SW 0,00 h 0 W/m 18,9 km/h (3 Bft)
13.12.2011 22:00 5,5 C 91 % 1009,8 hPa 0,0 l/m SW 0,00 h 0 W/m 13,6 km/h (3 Bft)
13.12.2011 23:00 4,8 C 93 % 1010,1 hPa 0,0 l/m SW 0,00 h 0 W/m 14,0 km/h (3 Bft)
14.12.2011 00:00 4,7 C 94 % 1010,1 hPa 0,0 l/m SW 0,00 h 0 W/m 11,2 km/h (2 Bft)
14.12.2011 01:00 3,9 C 94 % 1009,7 hPa 0,0 l/m SW 0,00 h 0 W/m 11,2 km/h (2 Bft)
14.12.2011 02:00 3,6 C 96 % 1009,8 hPa 0,0 l/m SW 0,00 h 0 W/m 11,3 km/h (2 Bft)
14.12.2011 03:00 4,3 C 96 % 1009,6 hPa 0,0 l/m SW 0,00 h 0 W/m 10,9 km/h (2 Bft)
14.12.2011 04:00 4,6 C 96 % 1009,0 hPa 0,0 l/m W-SW 0,00 h 0 W/m 12,8 km/h (3 Bft)
14.12.2011 05:00 5,0 C 95 % 1008,8 hPa 0,0 l/m W-SW 0,00 h 0 W/m 8,2 km/h (2 Bft)
14.12.2011 06:00 5,2 C 94 % 1007,7 hPa 0,0 l/m SW 0,00 h 0 W/m 12,4 km/h (3 Bft)
14.12.2011 07:00 4,9 C 92 % 1006,9 hPa 0,0 l/m SW 0,00 h 0 W/m 12,6 km/h (3 Bft)
14.12.2011 08:00 5,5 C 87 % 1006,4 hPa 0,0 l/m SW 0,42 h 21 W/m 16,4 km/h (3 Bft)
14.12.2011 09:00 6,8 C 81 % 1007,6 hPa 1,6 l/m W-SW 0,00 h 10 W/m 24,0 km/h (4 Bft)
14.12.2011 10:00 6,3 C 92 % 1008,3 hPa 2,4 l/m W-SW 0,00 h 17 W/m 21,2 km/h (4 Bft)
14.12.2011 11:00 6,1 C 95 % 1007,2 hPa 0,4 l/m S-SW 0,00 h 82 W/m 18,9 km/h (3 Bft)
14.12.2011 12:00 6,7 C 95 % 1005,9 hPa 0,0 l/m SW 0,17 h 98 W/m 22,9 km/h (4 Bft)
14.12.2011 13:00 7,8 C 91 % 1005,0 hPa 0,0 l/m SW 0,42 h 163 W/m 28,3 km/h (4 Bft)
14.12.2011 14:00 6,8 C 88 % 1006,8 hPa 2,6 l/m W 0,00 h 16 W/m 41,4 km/h (6 Bft)
14.12.2011 15:00 5,1 C 91 % 1006,9 hPa 0,0 l/m SW 0,00 h 27 W/m 30,4 km/h (5 Bft)
14.12.2011 16:00 5,4 C 89 % 1008,1 hPa 0,0 l/m SW 0,00 h 8 W/m 29,2 km/h (5 Bft)
14.12.2011 17:00 4,8 C 90 % 1008,6 hPa 0,0 l/m SW 0,00 h 0 W/m 13,3 km/h (3 Bft)
14.12.2011 18:00 4,3 C 94 % 1009,8 hPa 0,4 l/m SW 0,00 h 0 W/m 18,5 km/h (3 Bft)
14.12.2011 19:00 4,5 C 87 % 1010,5 hPa 0,0 l/m W-SW 0,00 h 0 W/m 29,8 km/h (5 Bft)
14.12.2011 20:00 4,5 C 82 % 1011,9 hPa 0,0 l/m W-SW 0,00 h 0 W/m 31,0 km/h (5 Bft)
14.12.2011 21:00 4,4 C 82 % 1012,3 hPa 0,0 l/m W-SW 0,00 h 0 W/m 20,6 km/h (4 Bft)
14.12.2011 22:00 3,4 C 87 % 1012,3 hPa 0,0 l/m SW 0,00 h 0 W/m 12,5 km/h (3 Bft)
14.12.2011 23:00 2,3 C 91 % 1012,1 hPa 0,0 l/m SW 0,00 h 0 W/m 11,2 km/h (2 Bft)
15.12.2011 00:00 2,3 C 92 % 1011,7 hPa 0,0 l/m SW 0,00 h 0 W/m 10,6 km/h (2 Bft)
15.12.2011 01:00 2,2 C 91 % 1011,0 hPa 0,0 l/m W-SW 0,00 h 0 W/m 8,4 km/h (2 Bft)
15.12.2011 02:00 1,8 C 92 % 1010,9 hPa 0,0 l/m SW 0,00 h 0 W/m 5,1 km/h (1 Bft)
15.12.2011 03:00 1,6 C 94 % 1010,1 hPa 0,0 l/m SW 0,00 h 0 W/m 6,4 km/h (2 Bft)
15.12.2011 04:00 1,6 C 94 % 1009,5 hPa 0,0 l/m SW 0,00 h 0 W/m 6,3 km/h (2 Bft)
15.12.2011 05:00 1,8 C 94 % 1009,5 hPa 0,0 l/m SW 0,00 h 0 W/m 9,5 km/h (2 Bft)
15.12.2011 06:00 2,7 C 91 % 1009,5 hPa 0,0 l/m SW 0,00 h 0 W/m 20,3 km/h (4 Bft)
15.12.2011 07:00 4,9 C 80 % 1009,9 hPa 0,0 l/m W-SW 0,00 h 0 W/m 26,2 km/h (4 Bft)
15.12.2011 08:00 4,8 C 81 % 1010,3 hPa 0,0 l/m SW 0,00 h 12 W/m 21,7 km/h (4 Bft)
15.12.2011 09:00 4,5 C 83 % 1011,1 hPa 0,0 l/m W-NW 0,00 h 16 W/m 14,4 km/h (3 Bft)
15.12.2011 10:00 4,8 C 83 % 1011,3 hPa 0,0 l/m W-SW 0,00 h 27 W/m 17,0 km/h (3 Bft)
15.12.2011 11:00 5,2 C 81 % 1011,1 hPa 0,0 l/m SW 0,00 h 76 W/m 20,4 km/h (4 Bft)
15.12.2011 12:00 5,4 C 79 % 1010,7 hPa 0,0 l/m W-SW 0,08 h 82 W/m 23,1 km/h (4 Bft)
15.12.2011 13:00 5,1 C 82 % 1010,4 hPa 0,0 l/m W-SW 0,00 h 66 W/m 31,5 km/h (5 Bft)
15.12.2011 14:00 4,7 C 85 % 1010,5 hPa 0,2 l/m W-SW 0,00 h 24 W/m 24,1 km/h (4 Bft)
15.12.2011 15:00 3,8 C 88 % 1010,9 hPa 0,0 l/m W 0,00 h 39 W/m 25,9 km/h (4 Bft)
15.12.2011 16:00 3,7 C 87 % 1011,7 hPa 0,0 l/m SW 0,17 h 10 W/m 26,2 km/h (4 Bft)
15.12.2011 17:00 3,8 C 85 % 1012,3 hPa 0,0 l/m SW 0,00 h 0 W/m 22,8 km/h (4 Bft)
15.12.2011 18:00 3,4 C 87 % 1012,6 hPa 0,0 l/m W-SW 0,00 h 0 W/m 17,6 km/h (3 Bft)
15.12.2011 19:00 3,7 C 85 % 1012,2 hPa 0,0 l/m W-SW 0,00 h 0 W/m 23,4 km/h (4 Bft)
15.12.2011 20:00 3,3 C 87 % 1011,9 hPa 0,0 l/m SW 0,00 h 0 W/m 16,5 km/h (3 Bft)
15.12.2011 21:00 3,2 C 86 % 1011,1 hPa 0,0 l/m W-SW 0,00 h 0 W/m 21,9 km/h (4 Bft)
15.12.2011 22:00 3,5 C 86 % 1010,6 hPa 0,0 l/m W-SW 0,00 h 0 W/m 26,1 km/h (4 Bft)
15.12.2011 23:00 3,4 C 90 % 1010,0 hPa 0,0 l/m SW 0,00 h 0 W/m 24,1 km/h (4 Bft)
16.12.2011 00:00 3,1 C 92 % 1008,8 hPa 0,2 l/m SW 0,00 h 0 W/m 18,4 km/h (3 Bft)
16.12.2011 01:00 2,9 C 94 % 1006,8 hPa 0,2 l/m SW 0,00 h 0 W/m 19,2 km/h (3 Bft)
16.12.2011 02:00 2,7 C 95 % 1004,7 hPa 0,6 l/m SW 0,00 h 0 W/m 17,0 km/h (3 Bft)
16.12.2011 03:00 2,7 C 95 % 1002,1 hPa 0,8 l/m SW 0,00 h 0 W/m 16,9 km/h (3 Bft)
16.12.2011 04:00 3,0 C 96 % 999,6 hPa 0,2 l/m SW 0,00 h 0 W/m 20,9 km/h (4 Bft)
16.12.2011 05:00 3,5 C 95 % 996,9 hPa 0,2 l/m SW 0,00 h 0 W/m 20,0 km/h (4 Bft)
16.12.2011 06:00 3,7 C 96 % 994,6 hPa 1,2 l/m SW 0,00 h 0 W/m 21,4 km/h (4 Bft)
16.12.2011 07:00 4,5 C 96 % 992,2 hPa 2,8 l/m SW 0,00 h 0 W/m 34,0 km/h (5 Bft)
16.12.2011 08:00 4,9 C 96 % 990,6 hPa 2,4 l/m SW 0,00 h 5 W/m 36,3 km/h (5 Bft)
16.12.2011 09:00 5,2 C 96 % 989,0 hPa 1,8 l/m SW 0,00 h 9 W/m 35,8 km/h (5 Bft)
16.12.2011 10:00 5,5 C 97 % 987,0 hPa 0,8 l/m SW 0,00 h 32 W/m 35,8 km/h (5 Bft)
16.12.2011 11:00 6,0 C 98 % 984,8 hPa 0,0 l/m SW 0,00 h 38 W/m 34,9 km/h (5 Bft)
16.12.2011 12:00 6,2 C 98 % 982,9 hPa 0,4 l/m SW 0,00 h 27 W/m 25,3 km/h (4 Bft)
16.12.2011 13:00 6,2 C 97 % 981,0 hPa 1,0 l/m SW 0,00 h 22 W/m 23,8 km/h (4 Bft)
16.12.2011 14:00 6,5 C 97 % 980,5 hPa 2,8 l/m SW 0,00 h 11 W/m 26,7 km/h (4 Bft)
16.12.2011 15:00 6,8 C 97 % 980,7 hPa 2,2 l/m SW 0,00 h 8 W/m 33,7 km/h (5 Bft)
16.12.2011 16:00 6,8 C 95 % 982,1 hPa 2,2 l/m W-SW 0,00 h 0 W/m 46,4 km/h (6 Bft)
16.12.2011 17:00 6,0 C 90 % 984,2 hPa 0,0 l/m W 0,00 h 0 W/m 46,8 km/h (6 Bft)
16.12.2011 18:00 5,3 C 87 % 987,2 hPa 0,2 l/m W-NW 0,00 h 0 W/m 47,1 km/h (6 Bft)
16.12.2011 19:00 3,9 C 85 % 990,6 hPa 0,4 l/m W 0,00 h 0 W/m 40,4 km/h (6 Bft)
16.12.2011 20:00 2,4 C 91 % 992,8 hPa 0,2 l/m W-NW 0,00 h 0 W/m 33,7 km/h (5 Bft)
16.12.2011 21:00 2,2 C 87 % 993,7 hPa 0,0 l/m W-NW 0,00 h 0 W/m 39,4 km/h (6 Bft)
16.12.2011 22:00 1,9 C 84 % 994,1 hPa 0,0 l/m W 0,00 h 0 W/m 29,4 km/h (5 Bft)
16.12.2011 23:00 1,3 C 79 % 995,1 hPa 0,0 l/m W-SW 0,00 h 0 W/m 23,5 km/h (4 Bft)
17.12.2011 00:00 0,8 C 79 % 995,3 hPa 0,0 l/m W 0,00 h 0 W/m 23,1 km/h (4 Bft)
17.12.2011 01:00 0,3 C 83 % 995,3 hPa 0,0 l/m W-SW 0,00 h 0 W/m 17,0 km/h (3 Bft)
17.12.2011 02:00 0,4 C 84 % 995,7 hPa 0,0 l/m W-SW 0,00 h 0 W/m 14,9 km/h (3 Bft)
17.12.2011 03:00 0,4 C 88 % 996,2 hPa 0,0 l/m W 0,00 h 0 W/m 18,2 km/h (3 Bft)
17.12.2011 04:00 -0,1 C 90 % 996,7 hPa 0,2 l/m W 0,00 h 0 W/m 12,1 km/h (2 Bft)
17.12.2011 05:00 0,1 C 88 % 997,2 hPa 0,0 l/m W-SW 0,00 h 0 W/m 16,9 km/h (3 Bft)
17.12.2011 06:00 0,3 C 88 % 998,1 hPa 0,0 l/m W-SW 0,00 h 0 W/m 18,8 km/h (3 Bft)
17.12.2011 07:00 0,2 C 92 % 998,9 hPa 0,0 l/m W 0,00 h 0 W/m 18,4 km/h (3 Bft)
17.12.2011 08:00 0,4 C 92 % 1000,1 hPa 0,2 l/m W 0,00 h 9 W/m 14,0 km/h (3 Bft)
17.12.2011 09:00 0,5 C 93 % 1001,6 hPa 0,0 l/m W-NW 0,00 h 19 W/m 15,0 km/h (3 Bft)
17.12.2011 10:00 0,9 C 92 % 1002,9 hPa 0,0 l/m W-NW 0,00 h 42 W/m 11,9 km/h (2 Bft)
17.12.2011 11:00 1,1 C 91 % 1003,8 hPa 0,2 l/m W-NW 0,00 h 55 W/m 11,4 km/h (2 Bft)
17.12.2011 12:00 1,3 C 90 % 1004,7 hPa 0,0 l/m W 0,00 h 36 W/m 9,8 km/h (2 Bft)
17.12.2011 13:00 1,3 C 90 % 1005,5 hPa 0,2 l/m W 0,00 h 56 W/m 12,9 km/h (3 Bft)
17.12.2011 14:00 1,5 C 91 % 1006,0 hPa 0,0 l/m W 0,08 h 85 W/m 14,8 km/h (3 Bft)
17.12.2011 15:00 1,2 C 90 % 1006,9 hPa 0,4 l/m W 0,00 h 41 W/m 12,5 km/h (3 Bft)
17.12.2011 16:00 0,9 C 89 % 1007,9 hPa 0,0 l/m W 0,00 h 8 W/m 7,9 km/h (2 Bft)
17.12.2011 17:00 0,4 C 90 % 1008,6 hPa 0,0 l/m W 0,00 h 0 W/m 7,6 km/h (2 Bft)
17.12.2011 18:00 0,4 C 91 % 1009,3 hPa 0,0 l/m W-SW 0,00 h 0 W/m 10,2 km/h (2 Bft)
17.12.2011 19:00 0,3 C 92 % 1009,8 hPa 0,0 l/m W-SW 0,00 h 0 W/m 9,7 km/h (2 Bft)
17.12.2011 20:00 -0,1 C 92 % 1010,3 hPa 0,0 l/m W-SW 0,00 h 0 W/m 11,3 km/h (2 Bft)
17.12.2011 21:00 -0,5 C 92 % 1010,3 hPa 0,0 l/m W-SW 0,00 h 0 W/m 15,6 km/h (3 Bft)
17.12.2011 22:00 -0,9 C 93 % 1010,1 hPa 0,0 l/m SW 0,00 h 0 W/m 10,3 km/h (2 Bft)
17.12.2011 23:00 -1,0 C 94 % 1010,0 hPa 0,0 l/m SW 0,00 h 0 W/m 12,4 km/h (3 Bft)
18.12.2011 00:00 -0,8 C 93 % 1010,0 hPa 0,0 l/m W-SW 0,00 h 0 W/m 13,7 km/h (3 Bft)
18.12.2011 01:00 -1,0 C 92 % 1009,5 hPa 0,0 l/m SW 0,00 h 0 W/m 8,0 km/h (2 Bft)
18.12.2011 02:00 -1,3 C 93 % 1009,3 hPa 0,0 l/m SW 0,00 h 0 W/m 10,7 km/h (2 Bft)
18.12.2011 03:00 -0,8 C 93 % 1009,1 hPa 0,0 l/m SW 0,00 h 0 W/m 12,6 km/h (3 Bft)
18.12.2011 04:00 -1,3 C 93 % 1008,7 hPa 0,0 l/m SW 0,00 h 0 W/m 8,2 km/h (2 Bft)
18.12.2011 05:00 -1,0 C 95 % 1008,6 hPa 0,0 l/m SW 0,00 h 0 W/m 13,2 km/h (3 Bft)
18.12.2011 06:00 -0,1 C 95 % 1008,8 hPa 0,0 l/m W-SW 0,00 h 0 W/m 20,4 km/h (4 Bft)
18.12.2011 07:00 0,1 C 92 % 1009,3 hPa 0,0 l/m W-SW 0,00 h 0 W/m 12,6 km/h (3 Bft)
18.12.2011 08:00 0,1 C 93 % 1009,8 hPa 0,2 l/m W-SW 0,00 h 12 W/m 14,5 km/h (3 Bft)
18.12.2011 09:00 -0,1 C 92 % 1010,6 hPa 0,0 l/m W-SW 0,00 h 43 W/m 19,7 km/h (3 Bft)
18.12.2011 10:00 0,0 C 90 % 1011,3 hPa 0,0 l/m SW 0,25 h 90 W/m 15,6 km/h (3 Bft)
18.12.2011 11:00 0,2 C 92 % 1011,4 hPa 0,0 l/m SW 0,00 h 68 W/m 14,9 km/h (3 Bft)
18.12.2011 12:00 0,6 C 91 % 1011,3 hPa 0,2 l/m W 0,25 h 128 W/m 13,8 km/h (3 Bft)
18.12.2011 13:00 1,2 C 84 % 1011,3 hPa 0,0 l/m W-SW 0,00 h 92 W/m 17,8 km/h (3 Bft)
18.12.2011 14:00 1,1 C 86 % 1011,3 hPa 0,0 l/m W-SW 0,08 h 89 W/m 16,2 km/h (3 Bft)
18.12.2011 15:00 0,7 C 87 % 1011,9 hPa 0,0 l/m W-SW 0,08 h 35 W/m 16,5 km/h (3 Bft)
18.12.2011 16:00 0,4 C 87 % 1012,7 hPa 0,0 l/m W-SW 0,00 h 11 W/m 10,1 km/h (2 Bft)
18.12.2011 17:00 0,2 C 89 % 1013,2 hPa 0,0 l/m W-SW 0,00 h 0 W/m 9,5 km/h (2 Bft)
18.12.2011 18:00 -0,2 C 90 % 1014,0 hPa 0,0 l/m W-SW 0,00 h 0 W/m 12,0 km/h (2 Bft)
18.12.2011 19:00 -0,2 C 91 % 1014,7 hPa 0,2 l/m W 0,00 h 0 W/m 8,3 km/h (2 Bft)
18.12.2011 20:00 -0,4 C 94 % 1015,1 hPa 0,4 l/m W 0,00 h 0 W/m 8,6 km/h (2 Bft)
18.12.2011 21:00 -0,6 C 96 % 1015,9 hPa 0,0 l/m N 0,00 h 0 W/m 1,6 km/h (1 Bft)
18.12.2011 22:00 -0,9 C 94 % 1016,5 hPa 0,0 l/m N 0,00 h 0 W/m 0,9 km/h (0 Bft)
18.12.2011 23:00 -1,2 C 94 % 1016,7 hPa 0,0 l/m W-NW 0,00 h 0 W/m 6,6 km/h (2 Bft)
Min-Datum _ 18.12.11 13.12.11 16.12.11 - - - - 13.12.11
_ Min-Zeit 02:15 12:55 14:30 - - - - 00:40
Minimum _ -1,4 C 70 % 980,2 hPa - - - - 0,0 km/h (0 Bft)
Max-Datum _ 14.12.11 12.12.11 12.12.11 16.12.11 - 13.12.11 14.12.11 16.12.11
_ Max-Zeit 13:50 10:30 21:20 07:30 - 10:25 13:35 16:20
Maximum _ 8,7 C 100 % 1018,7 hPa 2,8 l/m - 0,08 h 350 W/m 72,4 km/h
W-SW (8 Bft)
Durchschnitt _ 2,7 C 91 % 1007,2 hPa #33,0 l/m SW #2:25 h 43 W/m 17,2 km/h (3 Bft)